Time;durP1;ratioP1;P1;durP2;ratioP2;P2;SDS_P1;SDS_P2;PMS_P1;PMS_P2;Temp;Humidity;BMP_temperature;BMP_pressure;BME280_temperature;BME280_humidity;BME280_pressure;Samples;Min_cycle;Max_cycle;Signal;HPM_P1;HPM_P2
2021/08/05 00:01:39;;;;;;;3.00;2.08;;;;;;;14.38;nan;101418.72;6238218;23;20007;-48
2021/08/05 00:04:05;;;;;;;5.07;2.53;;;;;;;13.99;nan;101412.66;6236946;23;20012;-49
2021/08/05 00:06:30;;;;;;;4.82;2.75;;;;;;;13.59;nan;101416.56;6240018;23;19996;-47
2021/08/05 00:08:56;;;;;;;2.25;1.98;;;;;;;13.34;nan;101418.16;6237650;23;20015;-47
2021/08/05 00:11:22;;;;;;;7.38;2.22;;;;;;;13.23;nan;101417.19;6240294;23;20007;-49
2021/08/05 00:13:47;;;;;;;4.68;2.47;;;;;;;13.29;nan;101421.59;6237968;23;20104;-48
2021/08/05 00:16:13;;;;;;;3.00;2.55;;;;;;;13.11;nan;101419.16;6237271;23;20004;-47
2021/08/05 00:18:38;;;;;;;7.20;2.80;;;;;;;13.19;nan;101410.69;6238338;23;20451;-48
2021/08/05 00:21:04;;;;;;;5.22;2.75;;;;;;;13.37;nan;101413.06;6236248;23;20046;-48
2021/08/05 00:23:29;;;;;;;2.50;2.20;;;;;;;13.46;nan;101405.34;6239268;23;20408;-48
2021/08/05 00:25:55;;;;;;;2.60;1.80;;;;;;;13.52;nan;101410.56;6237043;23;20012;-48
2021/08/05 00:28:20;;;;;;;2.85;2.08;;;;;;;13.56;nan;101406.31;6238544;23;20433;-48
2021/08/05 00:30:46;;;;;;;4.47;2.28;;;;;;;13.56;nan;101411.69;6238297;23;20004;-48
2021/08/05 00:33:11;;;;;;;4.72;2.33;;;;;;;13.56;nan;101403.59;6236937;23;20035;-48
2021/08/05 00:35:37;;;;;;;7.07;2.40;;;;;;;13.54;nan;101410.31;6240133;23;20004;-48
2021/08/05 00:38:02;;;;;;;2.88;2.20;;;;;;;13.47;nan;101397.06;6236589;23;20006;-48
2021/08/05 00:40:28;;;;;;;6.40;2.85;;;;;;;13.44;nan;101392.16;6238813;23;20070;-48
2021/08/05 00:42:53;;;;;;;3.97;2.35;;;;;;;13.35;nan;101388.28;6237733;23;20058;-48
2021/08/05 00:45:19;;;;;;;4.57;2.42;;;;;;;13.35;nan;101387.47;6236271;23;20003;-48
2021/08/05 00:47:44;;;;;;;5.20;2.00;;;;;;;13.30;nan;101385.53;6237448;23;20020;-49
2021/08/05 00:50:11;;;;;;;5.57;2.60;;;;;;;13.22;nan;101388.66;6237611;23;20091;-48
2021/08/05 00:52:37;;;;;;;4.63;2.38;;;;;;;13.29;nan;101397.38;6235187;23;20000;-48
2021/08/05 00:55:03;;;;;;;5.55;2.45;;;;;;;13.23;nan;101393.78;6239230;23;20079;-48
2021/08/05 00:57:29;;;;;;;4.95;2.50;;;;;;;13.02;nan;101387.28;6237127;22;20150;-48
2021/08/05 00:59:55;;;;;;;6.82;2.50;;;;;;;12.78;nan;101390.44;6237657;23;20036;-48
2021/08/05 01:02:20;;;;;;;3.55;2.28;;;;;;;12.68;nan;101388.41;6237720;23;20006;-48
2021/08/05 01:04:51;;;;;;;6.20;2.80;;;;;;;12.76;nan;101382.63;6238245;23;20004;-52
2021/08/05 01:07:29;;;;;;;5.13;2.15;;;;;;;12.79;nan;101379.44;6237682;23;20008;-48
2021/08/05 01:10:00;;;;;;;4.95;2.45;;;;;;;12.81;nan;101385.38;6236764;23;20007;-49
2021/08/05 01:12:43;;;;;;;3.58;2.38;;;;;;;12.76;nan;101385.31;6238604;23;20019;-51
2021/08/05 01:15:14;;;;;;;4.70;2.42;;;;;;;12.86;nan;101380.06;6235789;23;20066;-48
2021/08/05 01:17:49;;;;;;;4.63;2.42;;;;;;;12.92;nan;101387.13;6239477;23;20007;-48
2021/08/05 01:20:21;;;;;;;5.15;2.50;;;;;;;12.90;nan;101389.25;6236200;23;20043;-49
2021/08/05 01:23:24;;;;;;;4.90;2.13;;;;;;;12.75;nan;101389.06;6237518;23;20004;-49
2021/08/05 01:26:05;;;;;;;7.18;2.80;;;;;;;12.70;nan;101386.28;6237306;23;20035;-49
2021/08/05 01:28:33;;;;;;;5.68;2.88;;;;;;;12.74;nan;101392.78;6237565;23;20008;-48
2021/08/05 01:31:02;;;;;;;3.38;2.60;;;;;;;12.21;nan;101394.13;6238735;23;20014;-48
2021/08/05 01:33:28;;;;;;;5.63;2.70;;;;;;;12.03;nan;101389.00;6237282;23;20008;-48
2021/08/05 01:35:55;;;;;;;5.22;2.80;;;;;;;12.09;nan;101391.50;6236953;23;20004;-48
2021/08/05 01:38:21;;;;;;;4.63;2.58;;;;;;;12.22;nan;101390.38;6237079;23;20609;-47
2021/08/05 01:40:50;;;;;;;3.90;2.65;;;;;;;12.24;nan;101385.59;6236076;23;20030;-48
2021/08/05 01:43:17;;;;;;;5.05;3.13;;;;;;;12.27;nan;101393.16;6236806;23;20087;-48
2021/08/05 01:45:44;;;;;;;3.83;2.53;;;;;;;12.37;nan;101390.63;6236657;23;20000;-49
2021/08/05 01:48:13;;;;;;;3.05;2.30;;;;;;;12.44;nan;101386.97;6236152;23;20459;-47
2021/08/05 01:50:41;;;;;;;4.18;2.50;;;;;;;12.44;nan;101378.91;6236452;23;20008;-48
2021/08/05 01:53:07;;;;;;;7.53;3.05;;;;;;;12.47;nan;101386.47;6237359;23;20000;-48
2021/08/05 01:55:33;;;;;;;6.57;2.90;;;;;;;12.45;nan;101385.91;6237916;23;20004;-49
2021/08/05 01:57:58;;;;;;;4.43;2.72;;;;;;;12.45;nan;101388.59;6237258;22;20012;-48
2021/08/05 02:00:24;;;;;;;4.63;2.92;;;;;;;12.43;nan;101380.78;6210429;23;20417;-50
2021/08/05 02:02:53;;;;;;;4.65;2.50;;;;;;;12.40;nan;101378.59;6237379;23;19996;-50
2021/08/05 02:05:53;;;;;;;3.08;2.20;;;;;;;12.33;nan;101370.66;6238295;23;20050;-48
2021/08/05 02:08:22;;;;;;;3.53;2.30;;;;;;;12.37;nan;101374.50;6236149;23;20000;-50
2021/08/05 02:10:50;;;;;;;5.50;2.60;;;;;;;12.39;nan;101366.22;6237599;23;20333;-48
2021/08/05 02:13:28;;;;;;;8.25;2.85;;;;;;;12.37;nan;101366.44;6237340;23;20004;-48
2021/08/05 02:15:57;;;;;;;5.22;2.88;;;;;;;12.42;nan;101370.28;6236748;23;20460;-48
2021/08/05 02:18:27;;;;;;;6.10;3.42;;;;;;;12.43;nan;101369.22;6236220;23;20011;-48
2021/08/05 02:20:54;;;;;;;4.28;2.67;;;;;;;12.45;nan;101361.72;6236647;23;20027;-49
2021/08/05 02:23:20;;;;;;;6.93;3.10;;;;;;;12.45;nan;101356.34;6236508;23;20032;-48
2021/08/05 02:25:50;;;;;;;7.13;3.13;;;;;;;12.44;nan;101365.47;6236738;23;20004;-49
2021/08/05 02:28:17;;;;;;;5.40;2.92;;;;;;;12.45;nan;101356.34;6234853;23;20679;-49
2021/08/05 02:30:43;;;;;;;3.85;2.47;;;;;;;12.45;nan;101357.16;6238830;23;20004;-48
2021/08/05 02:33:09;;;;;;;3.72;2.78;;;;;;;12.44;nan;101349.34;6208036;23;20010;-48
2021/08/05 02:35:37;;;;;;;4.80;2.90;;;;;;;12.43;nan;101343.16;6210432;23;20007;-48
2021/08/05 02:38:04;;;;;;;4.95;3.17;;;;;;;12.40;nan;101351.72;6237120;23;20039;-49
2021/08/05 02:40:33;;;;;;;4.35;2.92;;;;;;;12.37;nan;101349.50;6236539;23;20463;-48
2021/08/05 02:43:02;;;;;;;5.40;2.80;;;;;;;12.33;nan;101359.09;6235929;23;20054;-49
2021/08/05 02:45:27;;;;;;;6.00;2.92;;;;;;;12.28;nan;101349.09;6237406;23;20042;-48
2021/08/05 02:47:54;;;;;;;8.20;3.00;;;;;;;12.23;nan;101353.59;6234690;23;20236;-48
2021/08/05 02:50:21;;;;;;;3.35;2.78;;;;;;;12.19;nan;101355.13;6238605;23;20085;-49
2021/08/05 02:52:47;;;;;;;6.55;2.92;;;;;;;12.15;nan;101351.28;6235082;23;20343;-49
2021/08/05 02:55:14;;;;;;;8.10;3.35;;;;;;;12.09;nan;101347.72;6236168;23;20000;-48
2021/08/05 02:57:40;;;;;;;6.45;3.00;;;;;;;12.04;nan;101347.63;6238162;22;20344;-50
2021/08/05 03:00:06;;;;;;;8.30;3.17;;;;;;;11.98;nan;101346.72;6235266;23;20016;-47
2021/08/05 03:02:34;;;;;;;6.57;2.90;;;;;;;11.94;nan;101350.13;6237610;23;20032;-47
2021/08/05 03:05:00;;;;;;;4.95;2.55;;;;;;;11.87;nan;101350.31;6235593;23;20030;-48
2021/08/05 03:07:25;;;;;;;4.22;3.05;;;;;;;11.83;nan;101351.00;6237420;23;20000;-49
2021/08/05 03:09:51;;;;;;;5.22;2.60;;;;;;;11.82;nan;101342.13;6208841;23;20008;-47
2021/08/05 03:12:17;;;;;;;5.03;3.30;;;;;;;11.76;nan;101343.91;6236587;23;20053;-49
2021/08/05 03:14:42;;;;;;;7.10;2.90;;;;;;;11.78;nan;101335.59;6239206;23;20428;-50
2021/08/05 03:17:08;;;;;;;3.50;2.90;;;;;;;11.79;nan;101339.94;6237027;23;20004;-49
2021/08/05 03:19:33;;;;;;;5.55;2.70;;;;;;;11.78;nan;101338.28;6238775;23;19996;-51
2021/08/05 03:21:59;;;;;;;18.40;3.10;;;;;;;11.77;nan;101347.41;6236960;23;20030;-49
2021/08/05 03:24:25;;;;;;;6.00;3.00;;;;;;;11.76;nan;101338.53;6210209;23;20228;-48
2021/08/05 03:26:50;;;;;;;7.28;3.20;;;;;;;11.70;nan;101339.50;6235809;23;20059;-51
2021/08/05 03:29:16;;;;;;;6.22;2.70;;;;;;;11.66;nan;101335.63;6237536;23;20276;-49
2021/08/05 03:31:41;;;;;;;6.97;3.10;;;;;;;11.64;nan;101332.38;6238048;23;20049;-50
2021/08/05 03:34:07;;;;;;;9.80;3.33;;;;;;;11.61;nan;101340.94;6235492;23;20325;-49
2021/08/05 03:36:32;;;;;;;5.25;3.10;;;;;;;11.59;nan;101339.53;6236738;23;20016;-48
2021/08/05 03:38:58;;;;;;;7.82;2.72;;;;;;;11.60;nan;101341.97;6235929;23;20004;-48
2021/08/05 03:41:23;;;;;;;5.07;3.08;;;;;;;11.61;nan;101343.63;6210296;23;20008;-48
2021/08/05 03:43:49;;;;;;;4.53;3.03;;;;;;;11.62;nan;101342.56;6237638;23;20004;-49
2021/08/05 03:46:14;;;;;;;5.32;3.42;;;;;;;11.68;nan;101340.78;6237296;23;20348;-48
2021/08/05 03:48:40;;;;;;;4.18;2.83;;;;;;;11.72;nan;101342.75;6240630;23;20004;-48
2021/08/05 03:51:05;;;;;;;3.45;2.72;;;;;;;11.76;nan;101341.22;6210787;23;20004;-48
2021/08/05 03:53:32;;;;;;;4.20;3.38;;;;;;;11.79;nan;101338.06;6238643;23;20031;-47
2021/08/05 03:55:58;;;;;;;17.70;3.90;;;;;;;11.82;nan;101336.75;6239084;23;20071;-47
2021/08/05 03:58:24;;;;;;;7.25;3.03;;;;;;;11.83;nan;101349.13;6238693;23;20518;-48
2021/08/05 04:00:49;;;;;;;8.15;3.25;;;;;;;11.87;nan;101338.75;6238352;23;20345;-48
2021/08/05 04:03:14;;;;;;;6.90;3.42;;;;;;;11.92;nan;101346.88;6237779;23;20008;-50
2021/08/05 04:05:40;;;;;;;7.05;3.28;;;;;;;11.97;nan;101345.09;6239443;23;20027;-48
2021/08/05 04:08:06;;;;;;;4.55;3.20;;;;;;;12.07;nan;101339.09;6238860;23;20010;-48
2021/08/05 04:10:31;;;;;;;6.25;3.47;;;;;;;12.15;nan;101338.66;6239154;23;20417;-50
2021/08/05 04:12:56;;;;;;;5.90;3.10;;;;;;;12.25;nan;101340.72;6238339;23;20000;-48
2021/08/05 04:15:22;;;;;;;7.28;3.15;;;;;;;12.34;nan;101345.44;6236505;23;19996;-48
2021/08/05 04:17:48;;;;;;;6.63;3.35;;;;;;;12.36;nan;101342.50;6238596;23;20004;-48
2021/08/05 04:20:14;;;;;;;5.60;3.55;;;;;;;12.42;nan;101341.53;6238274;23;20312;-48
2021/08/05 04:22:40;;;;;;;5.03;3.35;;;;;;;12.50;nan;101342.97;6237824;23;20008;-48
2021/08/05 04:25:07;;;;;;;7.45;3.00;;;;;;;12.59;nan;101346.91;6238065;23;20407;-49
2021/08/05 04:27:32;;;;;;;6.18;3.33;;;;;;;12.67;nan;101346.47;6236845;23;20011;-49
2021/08/05 04:29:58;;;;;;;6.88;3.47;;;;;;;12.76;nan;101341.50;6238041;23;20004;-49
2021/08/05 04:32:24;;;;;;;6.68;3.72;;;;;;;12.82;nan;101330.53;6237173;23;20000;-48
2021/08/05 04:34:50;;;;;;;3.08;2.65;;;;;;;12.90;nan;101327.41;6238478;23;20081;-49
2021/08/05 04:37:17;;;;;;;4.45;3.35;;;;;;;13.01;nan;101323.78;6237615;23;20000;-49
2021/08/05 04:39:43;;;;;;;5.53;3.22;;;;;;;13.08;nan;101317.41;6236714;23;20015;-51
2021/08/05 04:42:08;;;;;;;6.05;2.90;;;;;;;13.15;nan;101316.16;6237025;23;20008;-48
2021/08/05 04:44:34;;;;;;;6.30;3.25;;;;;;;13.24;nan;101319.25;6238278;23;20000;-48
2021/08/05 04:47:00;;;;;;;5.43;3.55;;;;;;;13.32;nan;101321.50;6238170;23;20003;-49
2021/08/05 04:49:26;;;;;;;8.02;3.28;;;;;;;13.42;nan;101324.28;6238371;23;20008;-51
2021/08/05 04:51:53;;;;;;;5.32;3.00;;;;;;;13.48;nan;101323.31;6234843;23;20002;-48
2021/08/05 04:54:23;;;;;;;5.82;3.70;;;;;;;13.56;nan;101320.16;6236354;23;20459;-49
2021/08/05 04:56:49;;;;;;;6.70;3.58;;;;;;;13.66;nan;101313.25;6224908;22;20019;-49
2021/08/05 04:59:15;;;;;;;5.28;3.25;;;;;;;13.70;nan;101317.88;6266499;22;20219;-49
2021/08/05 05:01:41;;;;;;;5.43;3.13;;;;;;;13.78;nan;101319.28;6268266;22;20007;-50
2021/08/05 05:04:06;;;;;;;6.03;3.78;;;;;;;13.82;nan;101320.38;6268657;22;20427;-49
2021/08/05 05:06:32;;;;;;;5.53;3.00;;;;;;;13.91;nan;101316.97;6268755;22;20412;-48
2021/08/05 05:08:57;;;;;;;4.50;3.33;;;;;;;13.99;nan;101320.25;6268811;22;20435;-49
2021/08/05 05:11:23;;;;;;;4.65;3.22;;;;;;;14.08;nan;101316.84;6269620;22;19996;-49
2021/08/05 05:13:49;;;;;;;3.90;3.30;;;;;;;14.18;nan;101308.84;6267516;22;20425;-50
2021/08/05 05:16:14;;;;;;;5.40;3.03;;;;;;;14.31;nan;101325.63;6267679;22;20027;-49
2021/08/05 05:18:40;;;;;;;3.92;2.92;;;;;;;14.42;nan;101316.56;6267920;22;20018;-48
2021/08/05 05:21:06;;;;;;;7.13;3.80;;;;;;;14.59;nan;101319.94;6266773;22;20057;-51
2021/08/05 05:23:32;;;;;;;4.22;2.85;;;;;;;14.76;nan;101319.75;6267757;22;20010;-50
2021/08/05 05:25:58;;;;;;;3.92;2.58;;;;;;;14.92;nan;101321.47;6267342;22;20007;-49
2021/08/05 05:28:24;;;;;;;3.75;2.63;;;;;;;15.08;nan;101320.47;6267749;22;20003;-51
2021/08/05 05:30:50;;;;;;;5.85;3.20;;;;;;;15.21;nan;101315.63;6267585;22;20308;-50
2021/08/05 05:33:16;;;;;;;4.35;2.83;;;;;;;15.34;nan;101315.94;6267285;22;20031;-50
2021/08/05 05:35:42;;;;;;;3.63;2.90;;;;;;;15.53;nan;101318.97;6269778;22;20003;-49
2021/08/05 05:38:09;;;;;;;5.72;3.47;;;;;;;15.67;nan;101316.59;6239765;22;20730;-48
2021/08/05 05:40:35;;;;;;;6.35;3.42;;;;;;;15.69;nan;101312.53;6269126;22;20122;-50
2021/08/05 05:43:01;;;;;;;4.20;3.03;;;;;;;15.90;nan;101313.38;6266675;22;20391;-48
2021/08/05 05:45:27;;;;;;;6.78;3.33;;;;;;;15.99;nan;101319.06;6269438;22;20006;-52
2021/08/05 05:47:53;;;;;;;4.53;2.65;;;;;;;16.20;nan;101309.84;6265975;22;20009;-49
2021/08/05 05:50:19;;;;;;;3.35;2.90;;;;;;;16.39;nan;101318.22;6268159;22;20003;-49
2021/08/05 05:52:47;;;;;;;4.93;3.10;;;;;;;16.52;nan;101312.25;6265987;22;20313;-51
2021/08/05 05:55:12;;;;;;;7.45;3.15;;;;;;;16.56;nan;101307.91;6267910;22;20003;-49
2021/08/05 05:57:38;;;;;;;6.72;3.85;;;;;;;16.77;nan;101302.47;6239219;22;20443;-49
2021/08/05 06:00:05;;;;;;;4.15;2.72;;;;;;;16.95;nan;101301.84;6235685;23;20000;-49
2021/08/05 06:02:31;;;;;;;4.53;2.58;;;;;;;17.13;nan;101298.53;6236376;23;20011;-49
2021/08/05 06:04:56;;;;;;;3.92;2.30;;;;;;;17.38;nan;101296.75;6235184;23;20351;-49
2021/08/05 06:07:22;;;;;;;4.30;2.42;;;;;;;17.52;nan;101305.88;6237744;23;20004;-48
2021/08/05 06:09:47;;;;;;;6.65;2.83;;;;;;;17.62;nan;101303.13;6233879;23;20083;-50
2021/08/05 06:12:14;;;;;;;4.80;3.13;;;;;;;17.76;nan;101298.69;6236129;23;20249;-49
2021/08/05 06:14:40;;;;;;;5.10;3.28;;;;;;;17.93;nan;101302.91;6236727;23;20008;-49
2021/08/05 06:17:05;;;;;;;4.28;3.03;;;;;;;17.96;nan;101294.22;6234928;23;20008;-51
2021/08/05 06:19:31;;;;;;;3.55;2.60;;;;;;;18.04;nan;101299.03;6237137;23;20054;-51
2021/08/05 06:21:58;;;;;;;4.35;3.03;;;;;;;18.15;nan;101288.91;6235066;23;20073;-49
2021/08/05 06:24:24;;;;;;;6.97;3.08;;;;;;;18.18;nan;101291.84;6237282;23;20030;-49
2021/08/05 06:26:51;;;;;;;4.95;2.95;;;;;;;18.33;nan;101293.63;6236269;23;20441;-48
2021/08/05 06:29:17;;;;;;;7.55;2.67;;;;;;;18.57;nan;101291.72;6210212;23;20408;-49
2021/08/05 06:31:43;;;;;;;6.30;3.00;;;;;;;18.81;nan;101290.94;6237460;23;20328;-48
2021/08/05 06:34:09;;;;;;;7.45;2.85;;;;;;;19.02;nan;101290.38;6237357;23;20004;-50
2021/08/05 06:36:34;;;;;;;4.68;3.03;;;;;;;19.19;nan;101286.38;6239218;23;20004;-49
2021/08/05 06:39:01;;;;;;;6.10;3.30;;;;;;;19.37;nan;101290.22;6209403;23;20071;-49
2021/08/05 06:41:27;;;;;;;4.85;2.72;;;;;;;19.62;nan;101292.59;6237676;23;20004;-49
2021/08/05 06:43:52;;;;;;;5.00;2.63;;;;;;;19.84;nan;101291.97;6208533;23;20081;-49
2021/08/05 06:46:18;;;;;;;4.15;2.85;;;;;;;19.88;nan;101287.53;6237666;23;20000;-49
2021/08/05 06:48:43;;;;;;;5.72;3.25;;;;;;;20.06;nan;101297.56;6236371;23;20004;-52
2021/08/05 06:51:10;;;;;;;4.43;2.85;;;;;;;20.17;nan;101295.50;6237300;23;20000;-48
2021/08/05 06:53:36;;;;;;;5.13;3.22;;;;;;;20.33;nan;101294.13;6236135;23;20004;-50
2021/08/05 06:56:02;;;;;;;4.15;2.92;;;;;;;20.45;nan;101290.91;6237550;22;20050;-49
2021/08/05 06:58:32;;;;;;;7.38;3.08;;;;;;;20.54;nan;101288.31;6236774;23;20012;-49
2021/08/05 07:01:00;;;;;;;5.28;2.80;;;;;;;20.67;nan;101282.88;6237321;23;20004;-50
2021/08/05 07:03:26;;;;;;;8.40;3.45;;;;;;;20.90;nan;101285.69;6237372;23;20008;-51
2021/08/05 07:05:52;;;;;;;3.90;2.83;;;;;;;20.88;nan;101286.00;6237122;23;20440;-49
2021/08/05 07:08:17;;;;;;;4.43;2.90;;;;;;;20.97;nan;101286.06;6237583;23;20145;-50
2021/08/05 07:10:43;;;;;;;5.13;2.92;;;;;;;21.11;nan;101295.03;6237372;23;20004;-48
2021/08/05 07:13:08;;;;;;;6.25;2.88;;;;;;;21.15;nan;101290.59;6236929;23;20004;-49
2021/08/05 07:15:34;;;;;;;6.28;3.10;;;;;;;21.14;nan;101286.25;6236764;23;20317;-49
2021/08/05 07:17:59;;;;;;;5.25;3.40;;;;;;;21.19;nan;101282.63;6238218;23;20339;-49
2021/08/05 07:20:25;;;;;;;6.28;3.15;;;;;;;21.41;nan;101275.34;6240231;23;20011;-49
2021/08/05 07:22:50;;;;;;;4.50;3.00;;;;;;;21.62;nan;101277.56;6238694;23;20375;-48
2021/08/05 07:25:17;;;;;;;4.32;3.08;;;;;;;21.78;nan;101273.38;6238647;23;20079;-49
2021/08/05 07:27:44;;;;;;;6.57;3.15;;;;;;;21.95;nan;101273.47;6239445;23;20030;-50
2021/08/05 07:30:12;;;;;;;10.02;3.05;;;;;;;22.03;nan;101278.16;6240124;23;20000;-51
2021/08/05 07:32:38;;;;;;;3.95;3.00;;;;;;;22.20;nan;101274.75;6238780;23;20007;-50
2021/08/05 07:35:04;;;;;;;5.32;3.33;;;;;;;22.43;nan;101267.31;6239079;23;20436;-49
2021/08/05 07:37:30;;;;;;;3.95;2.58;;;;;;;22.64;nan;101267.56;6239022;23;20375;-49
2021/08/05 07:39:55;;;;;;;7.05;3.03;;;;;;;22.76;nan;101275.94;6238067;23;20184;-51
2021/08/05 07:42:21;;;;;;;10.57;3.67;;;;;;;22.72;nan;101264.03;6238909;23;20006;-50
2021/08/05 07:44:48;;;;;;;5.88;3.15;;;;;;;22.69;nan;101269.34;6237650;23;20053;-49
2021/08/05 07:47:14;;;;;;;8.48;4.00;;;;;;;22.76;nan;101256.81;6237225;23;20376;-49
2021/08/05 07:49:39;;;;;;;4.88;3.50;;;;;;;22.70;nan;101251.84;6240047;23;20007;-49
2021/08/05 07:52:05;;;;;;;5.43;3.05;;;;;;;22.83;nan;101261.88;6238178;23;20007;-49
2021/08/05 07:54:31;;;;;;;4.90;3.50;;;;;;;22.91;nan;101253.69;6239423;23;20004;-48
2021/08/05 07:56:57;;;;;;;7.40;4.00;;;;;;;23.10;nan;101252.56;6238763;22;20030;-48
2021/08/05 07:59:23;;;;;;;6.28;3.28;;;;;;;23.04;nan;101251.94;6234255;23;20429;-50
2021/08/05 08:01:48;;;;;;;5.72;3.63;;;;;;;23.06;nan;101262.53;6238151;23;20011;-52
2021/08/05 08:04:14;;;;;;;5.53;3.50;;;;;;;23.15;nan;101255.94;6237510;23;20011;-48
2021/08/05 08:06:39;;;;;;;4.82;3.55;;;;;;;23.28;nan;101251.47;6238452;23;20030;-49
2021/08/05 08:09:05;;;;;;;6.28;3.85;;;;;;;23.31;nan;101252.75;6238183;23;20401;-48
2021/08/05 08:11:30;;;;;;;6.53;4.00;;;;;;;23.30;nan;101253.88;6239986;23;20007;-50
2021/08/05 08:13:56;;;;;;;5.05;3.15;;;;;;;23.40;nan;101253.56;6237077;23;20008;-49
2021/08/05 08:16:22;;;;;;;5.25;3.53;;;;;;;23.19;nan;101250.66;6240814;23;20377;-48
2021/08/05 08:18:49;;;;;;;4.00;3.05;;;;;;;23.35;nan;101243.59;6238432;23;20006;-50
2021/08/05 08:21:15;;;;;;;6.28;3.47;;;;;;;23.34;nan;101241.16;6237846;23;20027;-49
2021/08/05 08:23:41;;;;;;;3.42;2.88;;;;;;;23.57;nan;101242.66;6238649;23;20000;-51
2021/08/05 08:26:07;;;;;;;5.20;2.97;;;;;;;23.69;nan;101234.56;6238379;23;20015;-50
2021/08/05 08:28:33;;;;;;;5.45;3.40;;;;;;;23.87;nan;101232.59;6239136;23;20004;-49
2021/08/05 08:30:59;;;;;;;4.80;2.70;;;;;;;23.71;nan;101231.53;6238069;23;20413;-49
2021/08/05 08:33:24;;;;;;;4.07;2.90;;;;;;;23.97;nan;101236.94;6236614;23;20004;-49
2021/08/05 08:35:50;;;;;;;3.25;2.80;;;;;;;24.32;nan;101237.66;6239010;23;20000;-48
2021/08/05 08:38:17;;;;;;;2.92;2.63;;;;;;;24.40;nan;101234.03;6237534;23;20043;-49
2021/08/05 08:40:43;;;;;;;3.17;2.72;;;;;;;24.65;nan;101230.38;6239693;23;20010;-49
2021/08/05 08:43:10;;;;;;;4.93;2.67;;;;;;;24.81;nan;101227.06;6210225;23;20004;-50
2021/08/05 08:45:37;;;;;;;5.45;2.88;;;;;;;25.03;nan;101225.97;6239336;23;20010;-50
2021/08/05 08:48:05;;;;;;;3.17;2.80;;;;;;;25.25;nan;101220.16;6211816;23;20502;-50
2021/08/05 08:50:33;;;;;;;8.57;3.75;;;;;;;25.20;nan;101223.09;6238194;23;19996;-49
2021/08/05 08:53:04;;;;;;;7.07;3.50;;;;;;;24.96;nan;101223.75;6235947;23;19996;-51
2021/08/05 08:55:30;;;;;;;19.30;4.40;;;;;;;25.00;nan;101219.22;6239461;23;20000;-49
2021/08/05 08:57:59;;;;;;;5.07;3.55;;;;;;;25.07;nan;101222.22;6236872;23;20078;-49
2021/08/05 09:00:24;;;;;;;4.45;3.88;;;;;;;25.13;nan;101215.41;6238566;23;20000;-50
2021/08/05 09:02:50;;;;;;;6.28;3.88;;;;;;;24.80;nan;101214.50;6235895;23;20046;-52
2021/08/05 09:05:16;;;;;;;4.65;3.92;;;;;;;25.10;nan;101213.31;6238500;23;20007;-52
2021/08/05 09:07:44;;;;;;;8.15;4.07;;;;;;;25.33;nan;101213.81;6238574;23;20377;-52
2021/08/05 09:10:10;;;;;;;5.82;4.03;;;;;;;25.48;nan;101206.88;6207423;23;20000;-49
2021/08/05 09:12:36;;;;;;;6.00;4.03;;;;;;;25.58;nan;101201.78;6236881;23;20293;-49
2021/08/05 09:15:03;;;;;;;5.78;3.95;;;;;;;25.69;nan;101195.91;6236336;22;20039;-84
2021/08/05 09:17:34;;;;;;;5.22;3.28;;;;;;;25.48;nan;101193.94;6239855;23;20008;-84
2021/08/05 09:20:07;;;;;;;4.70;4.00;;;;;;;25.64;nan;101190.56;6212569;23;20008;-84
2021/08/05 09:22:44;;;;;;;4.07;3.17;;;;;;;25.88;nan;101183.25;6238224;23;20264;-84
2021/08/05 09:25:25;;;;;;;6.03;3.50;;;;;;;25.78;nan;101182.88;6211394;23;20011;-84
2021/08/05 09:27:55;;;;;;;6.82;3.53;;;;;;;26.00;nan;101179.69;6237503;23;20028;-84
2021/08/05 09:30:36;;;;;;;4.82;3.08;;;;;;;25.97;nan;101185.06;6212103;23;20095;-84
2021/08/05 09:33:13;;;;;;;4.15;3.70;;;;;;;26.36;nan;101178.13;6236448;23;20034;-84
2021/08/05 09:35:41;;;;;;;4.63;3.67;;;;;;;26.10;nan;101173.75;6212169;23;20337;-84
2021/08/05 09:38:24;;;;;;;4.97;3.67;;;;;;;26.47;nan;101173.78;6209526;23;20066;-84
2021/08/05 09:41:05;;;;;;;14.75;5.07;;;;;;;26.95;nan;101169.34;6211314;23;20011;-84
2021/08/05 09:43:31;;;;;;;7.75;3.50;;;;;;;27.31;nan;101160.97;6210616;23;20213;-84
2021/08/05 09:45:57;;;;;;;3.50;3.00;;;;;;;27.33;nan;101164.16;6209468;23;20412;-83
2021/08/05 09:48:40;;;;;;;6.53;3.58;;;;;;;26.78;nan;101173.97;6210965;23;20035;-84
2021/08/05 09:51:06;;;;;;;6.20;3.42;;;;;;;27.07;nan;101161.06;6208046;23;20008;-84
2021/08/05 09:53:33;;;;;;;3.90;3.10;;;;;;;27.50;nan;101160.28;6209540;23;20065;-83
2021/08/05 09:56:11;;;;;;;7.57;3.47;;;;;;;27.38;nan;101157.59;6209755;23;20016;-84
2021/08/05 09:58:39;;;;;;;5.25;3.60;;;;;;;27.77;nan;101161.41;6210526;23;20331;-84
2021/08/05 10:01:08;;;;;;;4.28;3.38;;;;;;;28.00;nan;101159.63;6209892;23;20008;-84
2021/08/05 10:03:34;;;;;;;3.47;3.08;;;;;;;28.16;nan;101161.56;6210608;23;20011;-84
2021/08/05 10:06:02;;;;;;;4.55;3.35;;;;;;;28.28;nan;101159.53;6210243;23;20011;-84
2021/08/05 10:08:39;;;;;;;3.50;3.20;;;;;;;28.30;nan;101156.44;6237413;23;20315;-84
2021/08/05 10:11:05;;;;;;;3.63;3.33;;;;;;;28.13;nan;101151.25;6210025;23;20388;-84
2021/08/05 10:13:39;;;;;;;5.50;3.08;;;;;;;28.23;nan;101143.25;6211705;23;20036;-84
2021/08/05 10:16:10;;;;;;;4.10;3.17;;;;;;;27.52;nan;101146.97;6232329;23;20401;-84
2021/08/05 10:18:39;;;;;;;4.30;3.08;;;;;;;27.68;nan;101141.53;6235430;23;20012;-84
2021/08/05 10:21:07;;;;;;;5.00;2.92;;;;;;;27.93;nan;101140.19;6234619;23;20000;-84
2021/08/05 10:23:35;;;;;;;5.05;2.90;;;;;;;28.26;nan;101141.78;6231668;23;20440;-84
2021/08/05 10:26:07;;;;;;;4.63;3.17;;;;;;;28.65;nan;101144.59;6234985;22;20020;-86
2021/08/05 10:28:33;;;;;;;4.75;2.85;;;;;;;28.33;nan;101141.94;6236204;23;20012;-85
2021/08/05 10:31:01;;;;;;;3.20;2.85;;;;;;;28.32;nan;101134.81;6233725;23;20008;-88
2021/08/05 10:33:27;;;;;;;3.88;2.65;;;;;;;27.73;nan;101133.00;6230769;23;20008;-87
2021/08/05 10:35:53;;;;;;;4.45;2.83;;;;;;;27.72;nan;101125.88;6235460;22;20034;-86
2021/08/05 10:38:41;;;;;;;;;;;;;;;;;;;;;
2021/08/05 10:41:07;;;;;;;3.10;2.80;;;;;;;27.75;nan;101127.94;6226855;23;20183;-85
2021/08/05 10:43:35;;;;;;;5.72;3.10;;;;;;;27.65;nan;101128.47;6234982;23;20015;-85
2021/08/05 10:46:01;;;;;;;3.85;2.40;;;;;;;28.06;nan;101121.59;6235504;22;20352;-85
2021/08/05 10:48:28;;;;;;;8.75;2.80;;;;;;;28.13;nan;101112.69;6236682;23;20008;-86
2021/08/05 10:50:56;;;;;;;4.18;2.67;;;;;;;27.56;nan;101105.78;6236804;23;20038;-85
2021/08/05 10:53:31;;;;;;;6.47;2.42;;;;;;;27.58;nan;101104.28;6239349;23;20008;-86
2021/08/05 10:56:26;;;;;;;3.75;2.80;;;;;;;27.45;nan;101108.25;6238714;22;20018;-87
2021/08/05 10:59:15;;;;;;;2.92;2.45;;;;;;;27.36;nan;101105.69;6234450;23;20026;-90
2021/08/05 11:01:48;;;;;;;4.38;2.42;;;;;;;27.57;nan;101102.66;6242808;23;20076;-88
2021/08/05 11:04:39;;;;;;;6.03;2.65;;;;;;;27.63;nan;101106.78;6242208;22;20008;-87
2021/08/05 11:07:31;;;;;;;7.65;2.95;;;;;;;27.78;nan;101115.41;6243369;23;20018;-90
2021/08/05 11:10:22;;;;;;;4.43;2.33;;;;;;;27.84;nan;101106.53;6241447;23;20019;-90
2021/08/05 11:12:57;;;;;;;3.67;2.35;;;;;;;28.00;nan;101100.97;6232343;23;20004;-93
2021/08/05 11:15:30;;;;;;;4.85;2.70;;;;;;;28.08;nan;101093.69;6243431;22;20019;-90
2021/08/05 11:18:14;;;;;;;29.67;4.28;;;;;;;28.39;nan;101088.16;6243227;23;20439;-89
2021/08/05 11:20:46;;;;;;;12.27;2.65;;;;;;;28.50;nan;101083.66;6242727;23;20000;-89
2021/08/05 11:23:32;;;;;;;7.00;2.63;;;;;;;28.68;nan;101078.50;6242878;23;20008;-90
2021/08/05 11:26:14;;;;;;;;;;;;;;;;;;;;;
2021/08/05 11:28:54;;;;;;;5.22;2.15;;;;;;;29.48;nan;101069.44;6244075;23;20083;-90
2021/08/05 11:31:39;;;;;;;3.22;2.42;;;;;;;29.68;nan;101063.84;6243607;23;20383;-89
2021/08/05 11:34:13;;;;;;;4.28;2.30;;;;;;;29.84;nan;101060.94;6244096;22;20008;-89
2021/08/05 11:36:46;;;;;;;3.25;2.60;;;;;;;29.48;nan;101063.13;6244406;23;20004;-87
2021/08/05 11:39:30;;;;;;;;;;;;;;;;;;;;;
2021/08/05 11:42:23;;;;;;;;;;;;;;;;;;;;;
2021/08/05 11:45:13;;;;;;;3.00;2.33;;;;;;;29.14;nan;101057.38;6244457;22;20064;-89
2021/08/05 11:47:46;;;;;;;4.72;2.30;;;;;;;29.28;nan;101056.03;6245111;22;20484;-89
2021/08/05 11:50:18;;;;;;;4.75;2.42;;;;;;;29.27;nan;101046.97;6242846;23;20027;-89
2021/08/05 11:52:48;;;;;;;4.72;2.30;;;;;;;29.41;nan;101055.47;6243499;23;20079;-89